Time;durP1;ratioP1;P1;durP2;ratioP2;P2;SDS_P1;SDS_P2;PMS_P1;PMS_P2;Temp;Humidity;BMP_temperature;BMP_pressure;BME280_temperature;BME280_humidity;BME280_pressure;Samples;Min_cycle;Max_cycle;Signal;HPM_P1;HPM_P2
2021/11/24 00:02:00;;;;;;;9.23;4.35;;;22.30;52.30;;;;;;5196124;28;20053;-46
2021/11/24 00:04:33;;;;;;;7.85;4.20;;;22.30;52.30;;;;;;5217872;28;20053;-48
2021/11/24 00:07:05;;;;;;;8.10;4.35;;;22.30;52.30;;;;;;5209183;28;20041;-47
2021/11/24 00:09:37;;;;;;;7.00;4.38;;;22.30;52.20;;;;;;5208935;28;20556;-49
2021/11/24 00:12:10;;;;;;;7.05;4.22;;;22.30;52.20;;;;;;5196820;28;20642;-46
2021/11/24 00:14:42;;;;;;;5.90;4.15;;;22.30;52.20;;;;;;5212118;28;20476;-44
2021/11/24 00:17:16;;;;;;;7.40;4.65;;;22.30;52.30;;;;;;5210038;28;20052;-44
2021/11/24 00:19:49;;;;;;;6.45;4.03;;;22.30;52.20;;;;;;5190130;28;20045;-47
2021/11/24 00:22:21;;;;;;;7.30;4.53;;;22.30;52.30;;;;;;5207168;28;20051;-47
2021/11/24 00:24:53;;;;;;;8.38;4.65;;;22.30;52.30;;;;;;5175466;28;20139;-47
2021/11/24 00:27:26;;;;;;;5.88;4.18;;;22.30;52.30;;;;;;5192807;28;20492;-47
2021/11/24 00:29:59;;;;;;;5.70;4.15;;;22.30;52.30;;;;;;5187041;28;21092;-48
2021/11/24 00:32:31;;;;;;;7.43;4.07;;;22.30;52.30;;;;;;5186135;28;20056;-46
2021/11/24 00:35:06;;;;;;;7.80;4.43;;;22.30;52.30;;;;;;5201012;28;20049;-50
2021/11/24 00:37:39;;;;;;;6.80;3.47;;;22.30;52.30;;;;;;5191003;28;20359;-46
2021/11/24 00:40:11;;;;;;;7.60;4.25;;;22.30;52.30;;;;;;5151955;28;20044;-48
2021/11/24 00:42:44;;;;;;;8.85;4.05;;;22.30;52.30;;;;;;5201418;28;20063;-47
2021/11/24 00:45:16;;;;;;;8.15;3.95;;;22.30;52.30;;;;;;5201878;28;20644;-49
2021/11/24 00:47:50;;;;;;;6.90;4.68;;;22.30;52.30;;;;;;5200895;28;20056;-46
2021/11/24 00:50:22;;;;;;;6.03;4.10;;;22.20;52.20;;;;;;5210398;28;20052;-48
2021/11/24 00:52:55;;;;;;;5.28;3.50;;;22.30;52.30;;;;;;5204697;28;20041;-48
2021/11/24 00:55:27;;;;;;;6.70;4.47;;;22.30;52.30;;;;;;5202261;28;20041;-46
2021/11/24 00:58:00;;;;;;;5.68;4.18;;;22.30;52.30;;;;;;5187522;28;20052;-45
2021/11/24 01:00:32;;;;;;;5.82;3.88;;;22.30;52.30;;;;;;5201140;28;20053;-46
2021/11/24 01:03:05;;;;;;;5.13;3.42;;;22.30;52.30;;;;;;5188965;28;20048;-47
2021/11/24 01:05:38;;;;;;;8.00;3.83;;;22.30;52.20;;;;;;5201035;28;20820;-45
2021/11/24 01:08:12;;;;;;;7.77;4.23;;;22.30;52.20;;;;;;5207459;28;20056;-45
2021/11/24 01:10:45;;;;;;;11.88;4.22;;;22.30;52.20;;;;;;5212528;28;21321;-45
2021/11/24 01:13:18;;;;;;;7.43;4.32;;;22.30;52.20;;;;;;5200590;28;20052;-47
2021/11/24 01:15:50;;;;;;;7.00;4.05;;;22.30;52.20;;;;;;5205625;28;20595;-48
2021/11/24 01:18:23;;;;;;;7.68;4.07;;;22.30;52.20;;;;;;5210013;28;20045;-47
2021/11/24 01:20:55;;;;;;;7.47;4.18;;;22.30;52.20;;;;;;5208094;28;20715;-48
2021/11/24 01:23:27;;;;;;;5.32;3.47;;;22.20;52.10;;;;;;5210801;28;20416;-48
2021/11/24 01:26:00;;;;;;;5.50;3.90;;;22.30;52.20;;;;;;5213618;28;20378;-49
2021/11/24 01:28:32;;;;;;;7.40;3.95;;;22.30;52.20;;;;;;5224614;28;20125;-45
2021/11/24 01:31:05;;;;;;;5.07;4.00;;;22.30;52.20;;;;;;5210346;28;20049;-46
2021/11/24 01:33:38;;;;;;;5.10;3.80;;;22.30;52.20;;;;;;5209262;28;20054;-48
2021/11/24 01:36:10;;;;;;;5.60;3.75;;;22.30;52.30;;;;;;5209671;28;20568;-47
2021/11/24 01:38:43;;;;;;;6.10;3.90;;;22.20;52.20;;;;;;5166486;28;20578;-44
2021/11/24 01:41:16;;;;;;;5.68;3.88;;;22.30;52.30;;;;;;5193597;28;20487;-47
2021/11/24 01:43:49;;;;;;;5.40;3.28;;;22.20;52.30;;;;;;5197963;28;20392;-47
2021/11/24 01:46:28;;;;;;;5.65;3.95;;;22.30;52.40;;;;;;5198039;28;20044;-46
2021/11/24 01:49:01;;;;;;;5.00;3.60;;;22.30;52.40;;;;;;5212164;28;20073;-48
2021/11/24 01:51:33;;;;;;;7.00;3.58;;;22.30;52.40;;;;;;5191219;28;20051;-46
2021/11/24 01:54:05;;;;;;;4.50;3.78;;;22.20;52.40;;;;;;5213261;28;20815;-47
2021/11/24 01:56:38;;;;;;;5.82;4.05;;;22.30;52.50;;;;;;5194334;28;20075;-48
2021/11/24 01:59:12;;;;;;;5.50;3.65;;;22.20;52.40;;;;;;5208819;28;20052;-48
2021/11/24 02:01:45;;;;;;;6.50;3.30;;;22.20;52.40;;;;;;5179323;28;20052;-54
2021/11/24 02:04:21;;;;;;;8.77;4.78;;;22.20;52.50;;;;;;5190183;28;20048;-46
2021/11/24 02:06:54;;;;;;;5.33;3.83;;;22.20;52.50;;;;;;5163235;28;20053;-47
2021/11/24 02:09:26;;;;;;;6.32;3.83;;;22.30;52.60;;;;;;5174670;28;20044;-46
2021/11/24 02:11:59;;;;;;;12.07;3.90;;;22.20;52.60;;;;;;5192921;28;20056;-47
2021/11/24 02:14:32;;;;;;;5.95;3.60;;;22.30;52.60;;;;;;5186089;28;20037;-46
2021/11/24 02:17:05;;;;;;;4.75;3.42;;;22.20;52.60;;;;;;5162958;28;20063;-47
2021/11/24 02:19:37;;;;;;;6.25;3.60;;;22.20;52.60;;;;;;5171595;28;20416;-48
2021/11/24 02:22:11;;;;;;;7.63;4.00;;;22.20;52.60;;;;;;5203165;28;20045;-47
2021/11/24 02:24:44;;;;;;;5.95;3.70;;;22.20;52.70;;;;;;5204920;28;20052;-45
2021/11/24 02:27:17;;;;;;;7.03;3.65;;;22.20;52.70;;;;;;5205165;28;20064;-47
2021/11/24 02:29:50;;;;;;;8.47;3.90;;;22.20;52.70;;;;;;5210175;28;20048;-46
2021/11/24 02:32:22;;;;;;;5.55;3.65;;;22.20;52.60;;;;;;5201627;28;20041;-47
2021/11/24 02:34:55;;;;;;;5.43;3.45;;;22.20;52.60;;;;;;5204737;28;20778;-47
2021/11/24 02:37:27;;;;;;;6.85;4.13;;;22.20;52.70;;;;;;5208353;28;20048;-47
2021/11/24 02:40:00;;;;;;;5.35;3.53;;;22.20;52.60;;;;;;5206649;28;20068;-46
2021/11/24 02:42:32;;;;;;;5.65;3.25;;;22.20;52.70;;;;;;5205747;28;20409;-47
2021/11/24 02:45:06;;;;;;;5.53;3.33;;;22.20;52.70;;;;;;5203022;28;20052;-47
2021/11/24 02:47:38;;;;;;;4.75;4.00;;;22.20;52.80;;;;;;5207928;28;20044;-46
2021/11/24 02:50:11;;;;;;;5.85;3.72;;;22.20;52.70;;;;;;5208699;28;20051;-45
2021/11/24 02:52:44;;;;;;;5.60;3.80;;;22.20;52.60;;;;;;5210382;28;20051;-46
2021/11/24 02:55:17;;;;;;;4.07;3.10;;;22.20;52.70;;;;;;5193211;28;20442;-45
2021/11/24 02:57:52;;;;;;;5.87;3.40;;;22.20;52.60;;;;;;5209653;28;20041;-43
2021/11/24 03:00:28;;;;;;;4.82;3.67;;;22.20;52.60;;;;;;5178293;28;20814;-45
2021/11/24 03:03:01;;;;;;;4.32;3.20;;;22.20;52.70;;;;;;5195914;28;20523;-47
2021/11/24 03:05:35;;;;;;;4.13;3.33;;;22.20;52.70;;;;;;5196630;28;20428;-45
2021/11/24 03:08:07;;;;;;;11.15;3.55;;;22.20;52.60;;;;;;5198580;28;20501;-50
2021/11/24 03:10:40;;;;;;;5.22;3.50;;;22.20;52.70;;;;;;5208059;28;20044;-45
2021/11/24 03:13:12;;;;;;;4.47;3.50;;;22.20;52.70;;;;;;5209604;28;20064;-45
2021/11/24 03:15:45;;;;;;;5.43;3.80;;;22.20;52.70;;;;;;5206766;28;20049;-44
2021/11/24 03:18:17;;;;;;;4.32;3.58;;;22.20;52.70;;;;;;5204799;28;20071;-46
2021/11/24 03:20:50;;;;;;;5.30;3.67;;;22.20;52.70;;;;;;5205874;28;21336;-44
2021/11/24 03:23:22;;;;;;;4.78;3.30;;;22.20;52.80;;;;;;5208787;28;20040;-47
2021/11/24 03:25:55;;;;;;;4.57;3.55;;;22.20;52.80;;;;;;5195875;28;20033;-46
2021/11/24 03:28:27;;;;;;;6.28;3.92;;;22.20;52.80;;;;;;5196721;28;20049;-45
2021/11/24 03:31:00;;;;;;;5.00;4.22;;;22.20;52.90;;;;;;5207920;28;20116;-46
2021/11/24 03:33:32;;;;;;;4.18;3.17;;;22.20;52.80;;;;;;5207335;28;20047;-47
2021/11/24 03:36:05;;;;;;;4.90;2.92;;;22.20;52.90;;;;;;5207611;28;20505;-46
2021/11/24 03:38:37;;;;;;;5.43;3.55;;;22.20;52.80;;;;;;5205506;28;20591;-45
2021/11/24 03:41:10;;;;;;;7.97;3.30;;;22.20;52.80;;;;;;5205897;28;20476;-44
2021/11/24 03:43:42;;;;;;;4.63;3.50;;;22.10;52.80;;;;;;5207707;28;20044;-47
2021/11/24 03:46:15;;;;;;;5.65;3.38;;;22.20;52.80;;;;;;5211200;28;20297;-45
2021/11/24 03:48:47;;;;;;;4.20;3.20;;;22.10;52.80;;;;;;5210240;28;20051;-47
2021/11/24 03:51:20;;;;;;;8.18;3.85;;;22.20;52.80;;;;;;5210379;28;21192;-47
2021/11/24 03:53:52;;;;;;;6.22;3.63;;;22.20;52.80;;;;;;5210101;28;21750;-44
2021/11/24 03:56:24;;;;;;;8.65;4.05;;;22.20;52.90;;;;;;5208189;28;20048;-44
2021/11/24 03:58:57;;;;;;;4.95;3.42;;;22.20;52.90;;;;;;5204242;28;20095;-46
2021/11/24 04:01:29;;;;;;;3.67;3.10;;;22.10;52.90;;;;;;5209259;28;20052;-45
2021/11/24 04:04:02;;;;;;;4.17;3.37;;;22.10;52.80;;;;;;5212200;28;20048;-47
2021/11/24 04:06:39;;;;;;;5.97;3.05;;;22.10;52.80;;;;;;5204678;28;20758;-47
2021/11/24 04:09:11;;;;;;;7.38;3.33;;;22.20;53.00;;;;;;5209689;28;20040;-46
2021/11/24 04:11:44;;;;;;;6.97;3.35;;;22.10;52.80;;;;;;5205347;28;20049;-46
2021/11/24 04:14:16;;;;;;;4.38;3.30;;;22.20;52.90;;;;;;5208047;28;20500;-44
2021/11/24 04:16:49;;;;;;;3.95;3.28;;;22.10;52.80;;;;;;5209826;28;21112;-46
2021/11/24 04:19:21;;;;;;;5.03;3.50;;;22.10;52.80;;;;;;5209094;28;20056;-46
2021/11/24 04:21:54;;;;;;;5.18;3.13;;;22.10;52.80;;;;;;5189976;28;20512;-45
2021/11/24 04:24:26;;;;;;;4.57;3.22;;;22.20;52.90;;;;;;5207330;28;20055;-48
2021/11/24 04:26:59;;;;;;;4.32;2.60;;;22.10;52.80;;;;;;5203687;28;20331;-45
2021/11/24 04:29:31;;;;;;;5.53;3.15;;;22.10;52.80;;;;;;5208730;28;20052;-47
2021/11/24 04:32:04;;;;;;;4.13;2.95;;;22.10;52.90;;;;;;5200001;28;20513;-47
2021/11/24 04:34:37;;;;;;;4.07;2.90;;;22.10;52.90;;;;;;5205278;28;20044;-45
2021/11/24 04:37:10;;;;;;;3.53;2.75;;;22.20;52.90;;;;;;5221039;28;20060;-45
2021/11/24 04:39:42;;;;;;;4.35;3.08;;;22.10;52.90;;;;;;5206144;28;20110;-47
2021/11/24 04:42:15;;;;;;;4.75;3.15;;;22.10;52.90;;;;;;5207195;28;20071;-46
2021/11/24 04:44:48;;;;;;;4.03;3.28;;;22.10;52.90;;;;;;5208344;28;20052;-47
2021/11/24 04:47:20;;;;;;;4.03;3.20;;;22.10;52.90;;;;;;5207363;28;20052;-44
2021/11/24 04:49:53;;;;;;;6.68;3.28;;;22.10;52.90;;;;;;5217733;28;20873;-46
2021/11/24 04:52:26;;;;;;;4.57;3.23;;;22.20;53.00;;;;;;5215994;28;20048;-45
2021/11/24 04:54:58;;;;;;;4.55;3.08;;;22.10;52.90;;;;;;5217017;28;20067;-45
2021/11/24 04:57:31;;;;;;;3.85;3.17;;;22.10;53.00;;;;;;5206345;28;20044;-47
2021/11/24 05:00:08;;;;;;;5.03;2.85;;;22.10;53.00;;;;;;5205243;28;20727;-45
2021/11/24 05:02:42;;;;;;;4.90;3.15;;;22.10;53.00;;;;;;5203123;28;20404;-47
2021/11/24 05:05:14;;;;;;;4.13;2.70;;;22.10;52.90;;;;;;5195988;28;20036;-46
2021/11/24 05:07:47;;;;;;;4.35;3.30;;;22.10;53.00;;;;;;5208938;28;20048;-45
2021/11/24 05:10:20;;;;;;;4.03;2.60;;;22.10;53.00;;;;;;5217656;28;20847;-46
2021/11/24 05:12:52;;;;;;;4.55;2.80;;;22.10;53.00;;;;;;5209787;28;20488;-44
2021/11/24 05:15:29;;;;;;;3.90;2.90;;;22.10;53.10;;;;;;5212735;28;20045;-46
2021/11/24 05:18:04;;;;;;;7.35;3.30;;;22.10;53.10;;;;;;5205826;28;20048;-44
2021/11/24 05:20:37;;;;;;;5.90;2.95;;;22.10;53.50;;;;;;5201994;28;20404;-45
2021/11/24 05:23:14;;;;;;;;;;;22.10;53.20;;;;;;5191814;28;20053;-48
2021/11/24 05:25:46;;;;;;;7.85;3.15;;;22.00;53.40;;;;;;5201127;28;19929;-46
2021/11/24 05:28:18;;;;;;;8.85;3.20;;;22.10;53.50;;;;;;5196200;28;20588;-48
2021/11/24 05:30:51;;;;;;;9.75;3.20;;;22.10;53.60;;;;;;5206330;28;20041;-46
2021/11/24 05:33:23;;;;;;;7.45;3.05;;;22.10;53.50;;;;;;5191706;28;20040;-47
2021/11/24 05:35:56;;;;;;;13.75;3.40;;;22.10;53.40;;;;;;5188951;28;20722;-46
2021/11/24 05:38:29;;;;;;;24.95;4.30;;;22.10;53.50;;;;;;5177102;28;20068;-45
2021/11/24 05:41:01;;;;;;;21.73;3.45;;;22.10;53.40;;;;;;5195275;28;20053;-46
2021/11/24 05:43:34;;;;;;;11.15;3.28;;;22.10;53.40;;;;;;5185529;28;20060;-47
2021/11/24 05:46:14;;;;;;;6.63;3.50;;;22.20;53.30;;;;;;5192585;28;20040;-48
2021/11/24 05:48:47;;;;;;;5.97;2.92;;;22.20;53.20;;;;;;5173411;28;20453;-48
2021/11/24 05:51:19;;;;;;;14.10;3.60;;;22.20;53.20;;;;;;5200437;28;20045;-47
2021/11/24 05:53:52;;;;;;;10.87;3.67;;;22.20;53.10;;;;;;5199999;28;20409;-46
2021/11/24 05:56:24;;;;;;;10.20;3.83;;;22.20;53.00;;;;;;5190382;28;20301;-49
2021/11/24 05:58:57;;;;;;;8.00;3.85;;;22.30;53.10;;;;;;5199524;28;20227;-48
2021/11/24 06:01:29;;;;;;;15.70;4.03;;;22.30;53.00;;;;;;5188275;28;20056;-45
2021/11/24 06:04:05;;;;;;;15.13;3.55;;;22.30;53.10;;;;;;5192683;28;21213;-47
2021/11/24 06:06:38;;;;;;;6.25;3.25;;;22.30;53.10;;;;;;5201790;28;20052;-45
2021/11/24 06:09:11;;;;;;;9.88;3.35;;;22.30;53.10;;;;;;5199049;28;20532;-44
2021/11/24 06:11:43;;;;;;;7.03;3.40;;;22.30;53.10;;;;;;5200632;28;20079;-47
2021/11/24 06:14:15;;;;;;;10.32;4.75;;;22.30;53.00;;;;;;5197521;28;20531;-46
2021/11/24 06:16:48;;;;;;;11.55;5.75;;;22.30;53.00;;;;;;5196908;28;20582;-45
2021/11/24 06:19:20;;;;;;;20.85;5.85;;;22.30;52.90;;;;;;5202049;28;20048;-46
2021/11/24 06:21:53;;;;;;;15.43;7.05;;;22.30;52.80;;;;;;5184081;28;20048;-46
2021/11/24 06:24:25;;;;;;;17.20;6.78;;;22.30;52.60;;;;;;5196986;28;20041;-46
2021/11/24 06:26:58;;;;;;;17.38;7.63;;;22.30;52.50;;;;;;5183638;28;21007;-47
2021/11/24 06:29:30;;;;;;;18.10;8.45;;;22.30;52.50;;;;;;5193562;28;20587;-45
2021/11/24 06:32:03;;;;;;;23.48;11.30;;;22.40;52.50;;;;;;5194891;28;20808;-47
2021/11/24 06:34:36;;;;;;;29.08;11.35;;;22.40;52.50;;;;;;5191727;28;20060;-48
2021/11/24 06:37:09;;;;;;;26.50;12.40;;;22.30;52.50;;;;;;5210133;28;20496;-48
2021/11/24 06:39:41;;;;;;;28.45;12.38;;;22.40;52.50;;;;;;5197647;28;20053;-46
2021/11/24 06:42:14;;;;;;;25.63;10.80;;;22.30;52.30;;;;;;5212249;28;20736;-45
2021/11/24 06:44:46;;;;;;;25.23;12.60;;;22.40;52.30;;;;;;5208655;28;20056;-49
2021/11/24 06:47:19;;;;;;;27.77;11.88;;;22.40;52.10;;;;;;5209720;28;20044;-44
2021/11/24 06:49:51;;;;;;;24.98;11.30;;;22.30;51.90;;;;;;5220189;28;20045;-46
2021/11/24 06:52:24;;;;;;;28.20;11.77;;;22.40;51.90;;;;;;5201389;28;20044;-45
2021/11/24 06:54:56;;;;;;;22.92;11.65;;;22.40;51.80;;;;;;5194759;28;20040;-47
2021/11/24 06:57:29;;;;;;;25.40;11.55;;;22.40;51.80;;;;;;5205571;28;20485;-48
2021/11/24 07:00:03;;;;;;;29.55;12.45;;;22.30;51.70;;;;;;5177950;22;20064;-44
2021/11/24 07:06:24;;;;;;;25.83;12.32;;;22.40;51.60;;;;;;5182056;28;20063;-47
2021/11/24 07:08:56;;;;;;;26.00;11.10;;;22.40;51.70;;;;;;5196521;28;20052;-46
2021/11/24 07:11:30;;;;;;;24.10;11.52;;;22.30;51.60;;;;;;5197281;28;20049;-47
2021/11/24 07:14:03;;;;;;;24.42;9.80;;;22.30;51.50;;;;;;5186035;28;20097;-48
2021/11/24 07:16:36;;;;;;;25.27;9.73;;;22.40;51.50;;;;;;5165243;28;20707;-45
2021/11/24 07:19:09;;;;;;;;;;;22.30;51.30;;;;;;5200247;28;20041;-45
2021/11/24 07:21:47;;;;;;;22.40;10.13;;;22.30;51.20;;;;;;5203676;28;19936;-44
2021/11/24 07:24:20;;;;;;;30.48;10.45;;;22.30;51.30;;;;;;5195112;28;20048;-51
2021/11/24 07:26:53;;;;;;;24.13;9.45;;;22.30;51.20;;;;;;5199129;28;20045;-48
2021/11/24 07:29:25;;;;;;;19.05;8.98;;;22.40;51.30;;;;;;5182073;28;20054;-47
2021/11/24 07:31:58;;;;;;;15.68;8.75;;;22.30;51.20;;;;;;5183033;28;25097;-46
2021/11/24 07:34:30;;;;;;;20.00;9.10;;;22.40;51.20;;;;;;5198701;28;20049;-46
2021/11/24 07:37:03;;;;;;;15.30;8.43;;;22.30;51.20;;;;;;5194401;28;20794;-45
2021/11/24 07:39:35;;;;;;;18.83;9.00;;;22.40;51.30;;;;;;5199998;28;20050;-47
2021/11/24 07:42:08;;;;;;;19.23;8.20;;;22.40;51.20;;;;;;5198223;28;20061;-47
2021/11/24 07:44:41;;;;;;;21.52;9.80;;;22.30;51.20;;;;;;5198845;28;20053;-45
2021/11/24 07:47:13;;;;;;;19.17;9.35;;;22.40;51.20;;;;;;5184716;28;20052;-44
2021/11/24 07:49:46;;;;;;;17.35;7.90;;;22.30;51.10;;;;;;5195579;28;20875;-46
2021/11/24 07:52:18;;;;;;;16.30;8.75;;;22.40;51.20;;;;;;5181191;28;20049;-46
2021/11/24 07:54:51;;;;;;;13.95;8.15;;;22.40;51.20;;;;;;5195786;28;20037;-44
2021/11/24 07:57:23;;;;;;;16.50;8.13;;;22.40;51.20;;;;;;5202988;28;20056;-45
2021/11/24 07:59:56;;;;;;;15.02;7.50;;;22.40;51.30;;;;;;5200215;28;20509;-46
2021/11/24 08:02:28;;;;;;;16.87;7.73;;;22.40;51.30;;;;;;5200569;28;20049;-47
2021/11/24 08:05:03;;;;;;;16.85;7.88;;;22.40;51.30;;;;;;5184135;28;20060;-45
2021/11/24 08:07:56;;;;;;;14.38;7.50;;;22.40;51.30;;;;;;5199713;28;20041;-46
2021/11/24 08:10:28;;;;;;;15.88;7.30;;;22.40;51.30;;;;;;5206786;28;20079;-45
2021/11/24 08:13:01;;;;;;;20.15;7.57;;;22.40;51.30;;;;;;5182524;28;20463;-47
2021/11/24 08:15:38;;;;;;;19.00;7.25;;;22.40;51.20;;;;;;5203978;28;20647;-46
2021/11/24 08:18:11;;;;;;;13.77;6.80;;;22.40;51.30;;;;;;5202130;28;20056;-43
2021/11/24 08:20:43;;;;;;;19.05;7.88;;;22.40;51.20;;;;;;5186026;28;20576;-45
2021/11/24 08:23:16;;;;;;;14.10;7.25;;;22.40;51.20;;;;;;5205406;28;20562;-44
2021/11/24 08:25:48;;;;;;;13.63;7.63;;;22.40;51.20;;;;;;5203947;28;20049;-48
2021/11/24 08:28:21;;;;;;;14.82;7.40;;;22.40;51.20;;;;;;5187659;28;20505;-44
2021/11/24 08:30:53;;;;;;;13.48;7.03;;;22.40;51.20;;;;;;5203572;28;20480;-45
2021/11/24 08:33:26;;;;;;;16.23;8.10;;;22.40;51.20;;;;;;5202647;28;20059;-46
2021/11/24 08:35:58;;;;;;;13.48;7.20;;;22.40;51.80;;;;;;5204394;28;20053;-45
2021/11/24 08:38:30;;;;;;;12.13;7.10;;;22.40;51.20;;;;;;5196911;28;20067;-47
2021/11/24 08:41:03;;;;;;;14.10;6.97;;;22.40;51.20;;;;;;5203476;28;20037;-44
2021/11/24 08:43:36;;;;;;;12.35;6.47;;;22.40;51.20;;;;;;5202619;28;20568;-44
2021/11/24 08:46:08;;;;;;;14.38;6.40;;;22.40;51.20;;;;;;5190718;28;20037;-45
2021/11/24 08:48:41;;;;;;;11.60;6.25;;;22.40;51.20;;;;;;5203561;28;20053;-46
2021/11/24 08:51:13;;;;;;;11.27;6.90;;;22.40;51.10;;;;;;5200626;28;20055;-45
2021/11/24 08:53:46;;;;;;;13.23;6.90;;;22.40;51.10;;;;;;5199758;28;20302;-47
2021/11/24 08:56:18;;;;;;;10.88;6.20;;;22.40;51.10;;;;;;5205445;28;20041;-47
2021/11/24 08:58:51;;;;;;;12.00;6.47;;;22.40;51.10;;;;;;5204234;28;20041;-43
2021/11/24 09:01:23;;;;;;;15.93;7.37;;;22.40;51.10;;;;;;5199728;28;20045;-45
2021/11/24 09:03:56;;;;;;;8.57;5.53;;;22.40;51.10;;;;;;5200733;28;20043;-48
2021/11/24 09:06:29;;;;;;;13.45;6.32;;;22.40;51.10;;;;;;5198604;28;20054;-45
2021/11/24 09:09:04;;;;;;;13.05;5.72;;;22.40;51.10;;;;;;5204147;28;20506;-47
2021/11/24 09:11:36;;;;;;;10.70;6.10;;;22.40;51.10;;;;;;5198367;28;20045;-47
2021/11/24 09:14:09;;;;;;;14.25;5.90;;;22.40;51.10;;;;;;5200586;28;20044;-46
2021/11/24 09:16:49;;;;;;;9.30;5.60;;;22.40;51.10;;;;;;5183475;28;20401;-47
2021/11/24 09:19:22;;;;;;;9.10;5.32;;;22.40;51.00;;;;;;5198850;28;20041;-43
2021/11/24 09:21:55;;;;;;;10.80;6.43;;;22.50;51.10;;;;;;5205851;28;20045;-46
2021/11/24 09:24:27;;;;;;;9.63;5.65;;;22.40;51.00;;;;;;5199431;28;20048;-45
2021/11/24 09:27:13;;;;;;;9.50;5.60;;;22.40;51.10;;;;;;5193349;28;20293;-43
2021/11/24 09:29:48;;;;;;;7.90;5.30;;;22.40;51.00;;;;;;5182457;28;20526;-45
2021/11/24 09:32:20;;;;;;;10.70;5.15;;;22.40;51.00;;;;;;5201053;28;20064;-48
2021/11/24 09:34:53;;;;;;;8.40;5.72;;;22.40;51.00;;;;;;5198605;28;20045;-46
2021/11/24 09:37:26;;;;;;;8.57;5.10;;;22.40;51.00;;;;;;5205625;28;20050;-45
2021/11/24 09:40:00;;;;;;;9.88;5.20;;;22.40;51.00;;;;;;5185397;28;20060;-50
2021/11/24 09:42:36;;;;;;;14.05;5.45;;;22.40;51.00;;;;;;5194001;28;20045;-48
2021/11/24 09:45:10;;;;;;;11.75;5.60;;;22.40;51.00;;;;;;5183134;28;20049;-47
2021/11/24 09:47:47;;;;;;;8.95;5.15;;;22.50;51.20;;;;;;5198122;28;20681;-45
2021/11/24 09:50:23;;;;;;;13.05;5.25;;;22.50;51.30;;;;;;5196653;28;20050;-45
2021/11/24 09:52:58;;;;;;;11.75;5.30;;;22.40;51.30;;;;;;5195709;28;20068;-47
2021/11/24 09:55:37;;;;;;;11.25;5.28;;;22.50;51.40;;;;;;5201304;28;20064;-48
2021/11/24 09:58:13;;;;;;;9.85;5.00;;;22.50;51.40;;;;;;5206825;28;20045;-45
2021/11/24 10:00:46;;;;;;;8.85;4.88;;;22.50;51.40;;;;;;5203451;28;20768;-46
2021/11/24 10:03:19;;;;;;;13.38;5.15;;;22.40;51.40;;;;;;5204142;28;20059;-49
2021/11/24 10:05:52;;;;;;;;;;;22.50;51.50;;;;;;5187509;28;20053;-47
2021/11/24 10:08:44;;;;;;;9.73;5.35;;;22.40;51.50;;;;;;5186650;28;19921;-46
2021/11/24 10:11:17;;;;;;;9.63;4.75;;;22.40;51.50;;;;;;5196041;28;20049;-45
2021/11/24 10:13:50;;;;;;;9.27;4.82;;;22.50;51.50;;;;;;5195048;28;20496;-47
2021/11/24 10:16:29;;;;;;;8.50;5.00;;;22.50;51.50;;;;;;5202280;28;20056;-46
2021/11/24 10:19:09;;;;;;;10.73;4.80;;;22.50;51.50;;;;;;5197978;28;20068;-46
2021/11/24 10:22:05;;;;;;;10.02;4.75;;;22.50;51.50;;;;;;5197634;28;20052;-49
2021/11/24 10:24:43;;;;;;;7.75;4.63;;;22.50;51.40;;;;;;5201496;28;20053;-45
2021/11/24 10:27:34;;;;;;;8.85;4.63;;;22.50;51.40;;;;;;5200346;28;20388;-46
2021/11/24 10:30:26;;;;;;;9.50;4.43;;;22.50;51.30;;;;;;5187973;28;20048;-48
2021/11/24 10:33:17;;;;;;;23.45;5.35;;;22.50;51.40;;;;;;5200039;28;20056;-47
2021/11/24 10:36:07;;;;;;;6.35;4.40;;;22.40;51.30;;;;;;5191305;28;20049;-46
2021/11/24 10:38:46;;;;;;;6.60;4.40;;;22.50;51.40;;;;;;5190068;28;20064;-48
2021/11/24 10:41:39;;;;;;;7.68;5.03;;;22.40;51.30;;;;;;5197193;28;20045;-48
2021/11/24 10:44:29;;;;;;;11.65;4.95;;;22.50;51.30;;;;;;5178761;28;20057;-48
2021/11/24 10:47:04;;;;;;;9.80;4.60;;;22.50;51.40;;;;;;5196312;28;20053;-46
2021/11/24 10:49:49;;;;;;;6.55;4.45;;;22.50;51.40;;;;;;5162488;28;20088;-47
2021/11/24 10:52:26;;;;;;;7.40;4.07;;;22.50;51.30;;;;;;5200006;28;20049;-44
2021/11/24 10:55:08;;;;;;;8.68;4.30;;;22.50;51.30;;;;;;5200165;28;20045;-47
2021/11/24 10:57:43;;;;;;;5.60;3.63;;;22.50;51.40;;;;;;5181465;28;20049;-46
2021/11/24 11:00:20;;;;;;;9.57;4.20;;;22.50;51.40;;;;;;5191973;28;20049;-47
2021/11/24 11:02:52;;;;;;;12.02;4.90;;;22.50;51.40;;;;;;5190188;28;20127;-49
2021/11/24 11:05:25;;;;;;;6.95;3.92;;;22.50;51.40;;;;;;5202386;28;20306;-47
2021/11/24 11:08:02;;;;;;;5.63;3.65;;;22.50;51.40;;;;;;5202335;28;20048;-48
2021/11/24 11:10:36;;;;;;;6.82;3.70;;;22.50;51.40;;;;;;5202406;28;20056;-46
2021/11/24 11:13:12;;;;;;;;;;;22.50;51.70;;;;;;5198104;28;20404;-47
2021/11/24 11:15:49;;;;;;;7.13;4.28;;;22.40;51.30;;;;;;5173799;28;19921;-46
2021/11/24 11:18:35;;;;;;;7.57;3.90;;;22.50;51.40;;;;;;5191925;28;20056;-47
2021/11/24 11:21:11;;;;;;;11.30;4.28;;;22.50;51.40;;;;;;5198179;28;20049;-47
2021/11/24 11:23:48;;;;;;;5.45;3.67;;;22.50;51.40;;;;;;5197565;28;20559;-48
2021/11/24 11:26:27;;;;;;;5.05;3.90;;;22.50;51.30;;;;;;5199756;28;20056;-48
2021/11/24 11:29:00;;;;;;;8.18;4.43;;;22.50;51.40;;;;;;5203188;28;20419;-48
2021/11/24 11:31:34;;;;;;;8.00;4.00;;;22.50;51.40;;;;;;5178707;28;20052;-49
2021/11/24 11:34:08;;;;;;;6.35;3.85;;;22.50;51.40;;;;;;5185611;28;20485;-46
2021/11/24 11:36:44;;;;;;;4.82;3.28;;;22.50;51.30;;;;;;5162894;28;20870;-46
2021/11/24 11:39:17;;;;;;;7.55;3.95;;;22.50;51.30;;;;;;5180942;28;20055;-47
2021/11/24 11:41:50;;;;;;;8.00;3.30;;;22.50;51.30;;;;;;5182071;28;20049;-46
2021/11/24 11:44:43;;;;;;;6.85;3.58;;;22.50;51.40;;;;;;5180573;28;20045;-48
2021/11/24 11:47:52;;;;;;;5.68;3.28;;;22.50;51.40;;;;;;5181643;28;20049;-48
2021/11/24 12:00:33;;;;;;;8.93;3.40;;;22.50;51.10;;;;;;5180064;28;20683;-48
2021/11/24 12:03:06;;;;;;;7.13;3.65;;;22.40;51.00;;;;;;5199137;28;20049;-48
2021/11/24 12:06:19;;;;;;;7.07;3.15;;;22.40;51.00;;;;;;5190809;28;20053;-47
2021/11/24 12:09:09;;;;;;;4.07;2.78;;;22.50;51.70;;;;;;5203544;28;20526;-48
2021/11/24 12:12:10;;;;;;;5.22;3.22;;;22.40;51.00;;;;;;5175480;28;20435;-48
2021/11/24 12:14:49;;;;;;;4.38;3.00;;;22.50;51.00;;;;;;5175939;28;20045;-49
2021/11/24 12:17:52;;;;;;;4.80;3.20;;;22.50;51.00;;;;;;5178034;28;20050;-46
2021/11/24 12:20:29;;;;;;;5.97;3.00;;;22.40;51.00;;;;;;5188262;28;20076;-46
2021/11/24 12:23:04;;;;;;;6.78;3.60;;;22.50;51.10;;;;;;5175229;28;22734;-50
2021/11/24 12:25:40;;;;;;;5.25;3.10;;;22.50;51.10;;;;;;5159960;28;20068;-47
2021/11/24 12:28:14;;;;;;;9.30;3.03;;;22.50;51.10;;;;;;5180206;28;20064;-47
2021/11/24 12:30:47;;;;;;;6.57;3.38;;;22.50;51.10;;;;;;5180206;28;20053;-49
2021/11/24 12:33:23;;;;;;;5.03;2.63;;;22.50;51.10;;;;;;5177588;28;20044;-48
2021/11/24 12:36:08;;;;;;;5.47;3.03;;;22.50;51.20;;;;;;5180334;28;20049;-44
2021/11/24 12:38:49;;;;;;;7.43;3.05;;;22.50;51.20;;;;;;5174499;28;20056;-50
2021/11/24 12:41:25;;;;;;;6.97;3.22;;;22.50;51.20;;;;;;5154531;28;20593;-48
2021/11/24 12:44:06;;;;;;;7.57;3.20;;;22.50;51.30;;;;;;5177486;28;20064;-48
2021/11/24 12:46:42;;;;;;;9.77;3.65;;;22.50;51.40;;;;;;5175350;28;20060;-47
2021/11/24 12:49:17;;;;;;;6.18;3.80;;;22.50;51.40;;;;;;5180847;28;20794;-47
2021/11/24 12:51:51;;;;;;;7.00;3.67;;;22.50;51.50;;;;;;5181530;28;20048;-48
2021/11/24 12:54:26;;;;;;;6.97;3.00;;;22.50;51.60;;;;;;5177162;28;20049;-50
2021/11/24 12:57:04;;;;;;;7.28;3.40;;;22.50;51.50;;;;;;5189396;28;20049;-49
2021/11/24 12:59:40;;;;;;;6.63;3.33;;;22.50;51.50;;;;;;5183298;28;20045;-46
2021/11/24 13:02:14;;;;;;;7.07;3.83;;;22.50;51.50;;;;;;5166887;28;20049;-48
2021/11/24 13:04:48;;;;;;;5.82;3.40;;;22.50;51.60;;;;;;5188719;28;20080;-48
2021/11/24 13:07:23;;;;;;;10.00;3.88;;;22.50;51.40;;;;;;5184964;28;20053;-47
2021/11/24 13:09:55;;;;;;;5.88;3.63;;;22.50;51.30;;;;;;5191555;28;20053;-48
2021/11/24 13:12:34;;;;;;;10.63;3.75;;;22.50;51.40;;;;;;5191187;28;20083;-46
2021/11/24 13:15:09;;;;;;;4.57;3.25;;;22.50;51.50;;;;;;5176033;28;20436;-46
2021/11/24 13:18:02;;;;;;;9.25;3.67;;;22.60;51.70;;;;;;5179440;28;20043;-49
2021/11/24 13:20:34;;;;;;;5.63;3.57;;;22.60;51.80;;;;;;5190664;28;20045;-47
2021/11/24 13:23:07;;;;;;;6.55;3.58;;;22.60;51.90;;;;;;5179364;28;20644;-50
2021/11/24 13:25:41;;;;;;;5.13;3.03;;;22.60;52.00;;;;;;5187849;28;20057;-48
2021/11/24 13:28:16;;;;;;;8.63;4.15;;;22.60;52.00;;;;;;5175939;28;20049;-49
2021/11/24 13:30:52;;;;;;;10.65;3.28;;;22.60;52.20;;;;;;5189051;28;20133;-50
2021/11/24 13:33:27;;;;;;;8.02;3.30;;;22.60;52.20;;;;;;5178398;28;20040;-43
2021/11/24 13:36:05;;;;;;;6.53;3.33;;;22.60;52.20;;;;;;5188184;28;20409;-43